sensor_id;sensor_type;location;lat;lon;timestamp;P1;durP1;ratioP1;P2;durP2;ratioP2
51194;SDS011;37259;49.972;19.850;2023-01-19T00:00:54;11.9;;;5.3;;
51194;SDS011;37259;49.972;19.850;2023-01-19T00:01:54;11.9;;;5.3;;
51194;SDS011;37259;49.972;19.850;2023-01-19T00:02:54;11.9;;;5.3;;
51194;SDS011;37259;49.972;19.850;2023-01-19T00:03:54;11.9;;;5.3;;
51194;SDS011;37259;49.972;19.850;2023-01-19T00:04:54;11.9;;;5.3;;
51194;SDS011;37259;49.972;19.850;2023-01-19T00:05:54;11.9;;;5.3;;
51194;SDS011;37259;49.972;19.850;2023-01-19T00:06:54;11.9;;;5.3;;
51194;SDS011;37259;49.972;19.850;2023-01-19T00:07:54;17.7;;;10.1;;
51194;SDS011;37259;49.972;19.850;2023-01-19T00:08:54;17.7;;;10.1;;
51194;SDS011;37259;49.972;19.850;2023-01-19T00:09:54;17.7;;;10.1;;
51194;SDS011;37259;49.972;19.850;2023-01-19T00:10:54;17.7;;;10.1;;
51194;SDS011;37259;49.972;19.850;2023-01-19T00:11:54;17.7;;;10.1;;
51194;SDS011;37259;49.972;19.850;2023-01-19T00:12:54;17.7;;;10.1;;
51194;SDS011;37259;49.972;19.850;2023-01-19T00:13:54;17.7;;;10.1;;
51194;SDS011;37259;49.972;19.850;2023-01-19T00:14:54;17.7;;;10.1;;
51194;SDS011;37259;49.972;19.850;2023-01-19T00:15:54;17.7;;;10.1;;
51194;SDS011;37259;49.972;19.850;2023-01-19T00:16:54;17.7;;;10.1;;
51194;SDS011;37259;49.972;19.850;2023-01-19T00:17:54;17.7;;;10.1;;
51194;SDS011;37259;49.972;19.850;2023-01-19T00:18:54;17.7;;;10.1;;
51194;SDS011;37259;49.972;19.850;2023-01-19T00:19:54;17.7;;;10.1;;
51194;SDS011;37259;49.972;19.850;2023-01-19T00:20:54;17.7;;;10.1;;
51194;SDS011;37259;49.972;19.850;2023-01-19T00:21:54;17.7;;;10.1;;
51194;SDS011;37259;49.972;19.850;2023-01-19T00:22:54;17.7;;;10.1;;
51194;SDS011;37259;49.972;19.850;2023-01-19T00:23:54;17.7;;;10.1;;
51194;SDS011;37259;49.972;19.850;2023-01-19T00:24:54;17.7;;;10.1;;
51194;SDS011;37259;49.972;19.850;2023-01-19T00:25:54;17.7;;;10.1;;
51194;SDS011;37259;49.972;19.850;2023-01-19T00:26:54;17.7;;;10.1;;
51194;SDS011;37259;49.972;19.850;2023-01-19T00:27:54;17.7;;;10.1;;
51194;SDS011;37259;49.972;19.850;2023-01-19T00:28:54;17.7;;;10.1;;
51194;SDS011;37259;49.972;19.850;2023-01-19T00:29:54;17.7;;;10.1;;
51194;SDS011;37259;49.972;19.850;2023-01-19T00:30:54;17.7;;;10.1;;
51194;SDS011;37259;49.972;19.850;2023-01-19T00:31:54;17.7;;;10.1;;
51194;SDS011;37259;49.972;19.850;2023-01-19T00:32:54;17.7;;;10.1;;
51194;SDS011;37259;49.972;19.850;2023-01-19T00:33:54;17.7;;;10.1;;
51194;SDS011;37259;49.972;19.850;2023-01-19T00:34:54;17.7;;;10.1;;
51194;SDS011;37259;49.972;19.850;2023-01-19T00:35:54;17.7;;;10.1;;
51194;SDS011;37259;49.972;19.850;2023-01-19T00:36:54;17.7;;;10.1;;
51194;SDS011;37259;49.972;19.850;2023-01-19T00:37:54;19.5;;;11.9;;
51194;SDS011;37259;49.972;19.850;2023-01-19T00:38:54;19.5;;;11.9;;
51194;SDS011;37259;49.972;19.850;2023-01-19T00:39:54;19.5;;;11.9;;
51194;SDS011;37259;49.972;19.850;2023-01-19T00:40:54;19.5;;;11.9;;
51194;SDS011;37259;49.972;19.850;2023-01-19T00:41:54;19.5;;;11.9;;
51194;SDS011;37259;49.972;19.850;2023-01-19T00:42:54;19.5;;;11.9;;
51194;SDS011;37259;49.972;19.850;2023-01-19T00:43:54;19.5;;;11.9;;
51194;SDS011;37259;49.972;19.850;2023-01-19T00:44:54;19.5;;;11.9;;
51194;SDS011;37259;49.972;19.850;2023-01-19T00:45:54;19.5;;;11.9;;
51194;SDS011;37259;49.972;19.850;2023-01-19T00:46:54;19.5;;;11.9;;
51194;SDS011;37259;49.972;19.850;2023-01-19T00:47:54;19.5;;;11.9;;
51194;SDS011;37259;49.972;19.850;2023-01-19T00:48:54;19.5;;;11.9;;
51194;SDS011;37259;49.972;19.850;2023-01-19T00:49:54;19.5;;;11.9;;
51194;SDS011;37259;49.972;19.850;2023-01-19T00:50:54;19.5;;;11.9;;
51194;SDS011;37259;49.972;19.850;2023-01-19T00:51:54;19.5;;;11.9;;
51194;SDS011;37259;49.972;19.850;2023-01-19T00:52:54;19.5;;;11.9;;
51194;SDS011;37259;49.972;19.850;2023-01-19T00:53:54;19.5;;;11.9;;
51194;SDS011;37259;49.972;19.850;2023-01-19T00:54:54;19.5;;;11.9;;
51194;SDS011;37259;49.972;19.850;2023-01-19T00:55:54;19.5;;;11.9;;
51194;SDS011;37259;49.972;19.850;2023-01-19T00:56:54;19.5;;;11.9;;
51194;SDS011;37259;49.972;19.850;2023-01-19T00:57:54;19.5;;;11.9;;
51194;SDS011;37259;49.972;19.850;2023-01-19T00:58:54;19.5;;;11.9;;
51194;SDS011;37259;49.972;19.850;2023-01-19T00:59:54;19.5;;;11.9;;
51194;SDS011;37259;49.972;19.850;2023-01-19T01:00:54;19.5;;;11.9;;
51194;SDS011;37259;49.972;19.850;2023-01-19T01:01:54;19.5;;;11.9;;
51194;SDS011;37259;49.972;19.850;2023-01-19T01:02:54;19.5;;;11.9;;
51194;SDS011;37259;49.972;19.850;2023-01-19T01:03:54;19.5;;;11.9;;
51194;SDS011;37259;49.972;19.850;2023-01-19T01:04:54;19.5;;;11.9;;
51194;SDS011;37259;49.972;19.850;2023-01-19T01:05:54;19.5;;;11.9;;
51194;SDS011;37259;49.972;19.850;2023-01-19T01:06:54;19.5;;;11.9;;
51194;SDS011;37259;49.972;19.850;2023-01-19T01:07:54;19;;;11.5;;
51194;SDS011;37259;49.972;19.850;2023-01-19T01:08:54;19;;;11.5;;
51194;SDS011;37259;49.972;19.850;2023-01-19T01:09:54;19;;;11.5;;
51194;SDS011;37259;49.972;19.850;2023-01-19T01:10:54;19;;;11.5;;
51194;SDS011;37259;49.972;19.850;2023-01-19T01:11:54;19;;;11.5;;
51194;SDS011;37259;49.972;19.850;2023-01-19T01:12:55;19;;;11.5;;
51194;SDS011;37259;49.972;19.850;2023-01-19T01:13:54;19;;;11.5;;
51194;SDS011;37259;49.972;19.850;2023-01-19T01:14:54;19;;;11.5;;
51194;SDS011;37259;49.972;19.850;2023-01-19T01:15:54;19;;;11.5;;
51194;SDS011;37259;49.972;19.850;2023-01-19T01:16:54;19;;;11.5;;
51194;SDS011;37259;49.972;19.850;2023-01-19T01:17:54;19;;;11.5;;
51194;SDS011;37259;49.972;19.850;2023-01-19T01:18:54;19;;;11.5;;
51194;SDS011;37259;49.972;19.850;2023-01-19T01:19:54;19;;;11.5;;
51194;SDS011;37259;49.972;19.850;2023-01-19T01:20:59;19;;;11.5;;
51194;SDS011;37259;49.972;19.850;2023-01-19T01:21:54;19;;;11.5;;
51194;SDS011;37259;49.972;19.850;2023-01-19T01:22:54;19;;;11.5;;
51194;SDS011;37259;49.972;19.850;2023-01-19T01:23:54;19;;;11.5;;
51194;SDS011;37259;49.972;19.850;2023-01-19T01:24:54;19;;;11.5;;
51194;SDS011;37259;49.972;19.850;2023-01-19T01:25:54;19;;;11.5;;
51194;SDS011;37259;49.972;19.850;2023-01-19T01:26:54;19;;;11.5;;
51194;SDS011;37259;49.972;19.850;2023-01-19T01:27:54;19;;;11.5;;
51194;SDS011;37259;49.972;19.850;2023-01-19T01:28:54;19;;;11.5;;
51194;SDS011;37259;49.972;19.850;2023-01-19T01:29:54;19;;;11.5;;
51194;SDS011;37259;49.972;19.850;2023-01-19T01:30:54;19;;;11.5;;
51194;SDS011;37259;49.972;19.850;2023-01-19T01:31:54;19;;;11.5;;
51194;SDS011;37259;49.972;19.850;2023-01-19T01:32:54;19;;;11.5;;
51194;SDS011;37259;49.972;19.850;2023-01-19T01:33:54;19;;;11.5;;
51194;SDS011;37259;49.972;19.850;2023-01-19T01:34:54;19;;;11.5;;
51194;SDS011;37259;49.972;19.850;2023-01-19T01:35:54;19;;;11.5;;
51194;SDS011;37259;49.972;19.850;2023-01-19T01:36:54;19;;;11.5;;
51194;SDS011;37259;49.972;19.850;2023-01-19T01:37:56;16.1;;;9.7;;
51194;SDS011;37259;49.972;19.850;2023-01-19T01:38:54;16.1;;;9.7;;
51194;SDS011;37259;49.972;19.850;2023-01-19T01:39:54;16.1;;;9.7;;
51194;SDS011;37259;49.972;19.850;2023-01-19T01:40:54;16.1;;;9.7;;
51194;SDS011;37259;49.972;19.850;2023-01-19T01:41:54;16.1;;;9.7;;
51194;SDS011;37259;49.972;19.850;2023-01-19T01:42:54;16.1;;;9.7;;
51194;SDS011;37259;49.972;19.850;2023-01-19T01:43:54;16.1;;;9.7;;
51194;SDS011;37259;49.972;19.850;2023-01-19T01:44:55;16.1;;;9.7;;
51194;SDS011;37259;49.972;19.850;2023-01-19T01:45:54;16.1;;;9.7;;
51194;SDS011;37259;49.972;19.850;2023-01-19T01:46:54;16.1;;;9.7;;
51194;SDS011;37259;49.972;19.850;2023-01-19T01:47:54;16.1;;;9.7;;
51194;SDS011;37259;49.972;19.850;2023-01-19T01:48:56;16.1;;;9.7;;
51194;SDS011;37259;49.972;19.850;2023-01-19T01:49:55;16.1;;;9.7;;
51194;SDS011;37259;49.972;19.850;2023-01-19T01:50:55;16.1;;;9.7;;
51194;SDS011;37259;49.972;19.850;2023-01-19T01:51:54;16.1;;;9.7;;
51194;SDS011;37259;49.972;19.850;2023-01-19T01:52:55;16.1;;;9.7;;
51194;SDS011;37259;49.972;19.850;2023-01-19T01:53:57;16.1;;;9.7;;
51194;SDS011;37259;49.972;19.850;2023-01-19T01:54:54;16.1;;;9.7;;
51194;SDS011;37259;49.972;19.850;2023-01-19T01:55:54;16.1;;;9.7;;
51194;SDS011;37259;49.972;19.850;2023-01-19T01:56:54;16.1;;;9.7;;
51194;SDS011;37259;49.972;19.850;2023-01-19T01:57:55;16.1;;;9.7;;
51194;SDS011;37259;49.972;19.850;2023-01-19T01:58:54;16.1;;;9.7;;
51194;SDS011;37259;49.972;19.850;2023-01-19T01:59:54;16.1;;;9.7;;
51194;SDS011;37259;49.972;19.850;2023-01-19T02:00:54;16.1;;;9.7;;
51194;SDS011;37259;49.972;19.850;2023-01-19T02:01:54;16.1;;;9.7;;
51194;SDS011;37259;49.972;19.850;2023-01-19T02:02:54;16.1;;;9.7;;
51194;SDS011;37259;49.972;19.850;2023-01-19T02:03:54;16.1;;;9.7;;
51194;SDS011;37259;49.972;19.850;2023-01-19T02:04:54;16.1;;;9.7;;
51194;SDS011;37259;49.972;19.850;2023-01-19T02:05:54;16.1;;;9.7;;
51194;SDS011;37259;49.972;19.850;2023-01-19T02:06:54;16.1;;;9.7;;
51194;SDS011;37259;49.972;19.850;2023-01-19T02:07:55;17.6;;;11;;
51194;SDS011;37259;49.972;19.850;2023-01-19T02:08:54;17.6;;;11;;
51194;SDS011;37259;49.972;19.850;2023-01-19T02:09:54;17.6;;;11;;
51194;SDS011;37259;49.972;19.850;2023-01-19T02:10:54;17.6;;;11;;
51194;SDS011;37259;49.972;19.850;2023-01-19T02:11:54;17.6;;;11;;
51194;SDS011;37259;49.972;19.850;2023-01-19T02:12:54;17.6;;;11;;
51194;SDS011;37259;49.972;19.850;2023-01-19T02:13:54;17.6;;;11;;
51194;SDS011;37259;49.972;19.850;2023-01-19T02:14:54;17.6;;;11;;
51194;SDS011;37259;49.972;19.850;2023-01-19T02:15:55;17.6;;;11;;
51194;SDS011;37259;49.972;19.850;2023-01-19T02:16:54;17.6;;;11;;
51194;SDS011;37259;49.972;19.850;2023-01-19T02:17:54;17.6;;;11;;
51194;SDS011;37259;49.972;19.850;2023-01-19T02:18:54;17.6;;;11;;
51194;SDS011;37259;49.972;19.850;2023-01-19T02:19:54;17.6;;;11;;
51194;SDS011;37259;49.972;19.850;2023-01-19T02:20:56;17.6;;;11;;
51194;SDS011;37259;49.972;19.850;2023-01-19T02:21:55;17.6;;;11;;
51194;SDS011;37259;49.972;19.850;2023-01-19T02:22:54;17.6;;;11;;
51194;SDS011;37259;49.972;19.850;2023-01-19T02:23:54;17.6;;;11;;
51194;SDS011;37259;49.972;19.850;2023-01-19T02:24:54;17.6;;;11;;
51194;SDS011;37259;49.972;19.850;2023-01-19T02:25:54;17.6;;;11;;
51194;SDS011;37259;49.972;19.850;2023-01-19T02:26:54;17.6;;;11;;
51194;SDS011;37259;49.972;19.850;2023-01-19T02:27:54;17.6;;;11;;
51194;SDS011;37259;49.972;19.850;2023-01-19T02:28:54;17.6;;;11;;
51194;SDS011;37259;49.972;19.850;2023-01-19T02:29:54;17.6;;;11;;
51194;SDS011;37259;49.972;19.850;2023-01-19T02:30:54;17.6;;;11;;
51194;SDS011;37259;49.972;19.850;2023-01-19T02:31:54;17.6;;;11;;
51194;SDS011;37259;49.972;19.850;2023-01-19T02:32:54;17.6;;;11;;
51194;SDS011;37259;49.972;19.850;2023-01-19T02:33:54;17.6;;;11;;
51194;SDS011;37259;49.972;19.850;2023-01-19T02:34:54;17.6;;;11;;
51194;SDS011;37259;49.972;19.850;2023-01-19T02:35:54;17.6;;;11;;
51194;SDS011;37259;49.972;19.850;2023-01-19T02:36:55;17.6;;;11;;
51194;SDS011;37259;49.972;19.850;2023-01-19T02:37:54;14.5;;;9.3;;
51194;SDS011;37259;49.972;19.850;2023-01-19T02:38:54;14.5;;;9.3;;
51194;SDS011;37259;49.972;19.850;2023-01-19T02:39:54;14.5;;;9.3;;
51194;SDS011;37259;49.972;19.850;2023-01-19T02:40:54;14.5;;;9.3;;
51194;SDS011;37259;49.972;19.850;2023-01-19T02:41:54;14.5;;;9.3;;
51194;SDS011;37259;49.972;19.850;2023-01-19T02:42:55;14.5;;;9.3;;
51194;SDS011;37259;49.972;19.850;2023-01-19T02:43:54;14.5;;;9.3;;
51194;SDS011;37259;49.972;19.850;2023-01-19T02:44:55;14.5;;;9.3;;
51194;SDS011;37259;49.972;19.850;2023-01-19T02:45:54;14.5;;;9.3;;
51194;SDS011;37259;49.972;19.850;2023-01-19T02:46:54;14.5;;;9.3;;
51194;SDS011;37259;49.972;19.850;2023-01-19T02:47:54;14.5;;;9.3;;
51194;SDS011;37259;49.972;19.850;2023-01-19T02:48:57;14.5;;;9.3;;
51194;SDS011;37259;49.972;19.850;2023-01-19T02:49:54;14.5;;;9.3;;
51194;SDS011;37259;49.972;19.850;2023-01-19T02:50:54;14.5;;;9.3;;
51194;SDS011;37259;49.972;19.850;2023-01-19T02:51:54;14.5;;;9.3;;
51194;SDS011;37259;49.972;19.850;2023-01-19T02:52:54;14.5;;;9.3;;
51194;SDS011;37259;49.972;19.850;2023-01-19T02:53:58;14.5;;;9.3;;
51194;SDS011;37259;49.972;19.850;2023-01-19T02:54:57;14.5;;;9.3;;
51194;SDS011;37259;49.972;19.850;2023-01-19T02:55:55;14.5;;;9.3;;
51194;SDS011;37259;49.972;19.850;2023-01-19T02:56:59;14.5;;;9.3;;
51194;SDS011;37259;49.972;19.850;2023-01-19T02:57:55;14.5;;;9.3;;
51194;SDS011;37259;49.972;19.850;2023-01-19T02:58:55;14.5;;;9.3;;
51194;SDS011;37259;49.972;19.850;2023-01-19T02:59:57;14.5;;;9.3;;
51194;SDS011;37259;49.972;19.850;2023-01-19T03:00:55;14.5;;;9.3;;
51194;SDS011;37259;49.972;19.850;2023-01-19T03:01:58;14.5;;;9.3;;
51194;SDS011;37259;49.972;19.850;2023-01-19T03:02:58;14.5;;;9.3;;
51194;SDS011;37259;49.972;19.850;2023-01-19T03:03:54;14.5;;;9.3;;
51194;SDS011;37259;49.972;19.850;2023-01-19T03:04:57;14.5;;;9.3;;
51194;SDS011;37259;49.972;19.850;2023-01-19T03:05:55;14.5;;;9.3;;
51194;SDS011;37259;49.972;19.850;2023-01-19T03:06:56;14.5;;;9.3;;
51194;SDS011;37259;49.972;19.850;2023-01-19T03:07:55;20.2;;;11.6;;
51194;SDS011;37259;49.972;19.850;2023-01-19T03:08:54;20.2;;;11.6;;
51194;SDS011;37259;49.972;19.850;2023-01-19T03:09:56;20.2;;;11.6;;
51194;SDS011;37259;49.972;19.850;2023-01-19T03:10:56;20.2;;;11.6;;
51194;SDS011;37259;49.972;19.850;2023-01-19T03:11:58;20.2;;;11.6;;
51194;SDS011;37259;49.972;19.850;2023-01-19T03:12:56;20.2;;;11.6;;
51194;SDS011;37259;49.972;19.850;2023-01-19T03:13:55;20.2;;;11.6;;
51194;SDS011;37259;49.972;19.850;2023-01-19T03:14:54;20.2;;;11.6;;
51194;SDS011;37259;49.972;19.850;2023-01-19T03:15:55;20.2;;;11.6;;
51194;SDS011;37259;49.972;19.850;2023-01-19T03:16:55;20.2;;;11.6;;
51194;SDS011;37259;49.972;19.850;2023-01-19T03:17:54;20.2;;;11.6;;
51194;SDS011;37259;49.972;19.850;2023-01-19T03:18:54;20.2;;;11.6;;
51194;SDS011;37259;49.972;19.850;2023-01-19T03:19:54;20.2;;;11.6;;
51194;SDS011;37259;49.972;19.850;2023-01-19T03:20:55;20.2;;;11.6;;
51194;SDS011;37259;49.972;19.850;2023-01-19T03:21:56;20.2;;;11.6;;
51194;SDS011;37259;49.972;19.850;2023-01-19T03:22:55;20.2;;;11.6;;
51194;SDS011;37259;49.972;19.850;2023-01-19T03:23:54;20.2;;;11.6;;
51194;SDS011;37259;49.972;19.850;2023-01-19T03:24:55;20.2;;;11.6;;
51194;SDS011;37259;49.972;19.850;2023-01-19T03:25:54;20.2;;;11.6;;
51194;SDS011;37259;49.972;19.850;2023-01-19T03:26:55;20.2;;;11.6;;
51194;SDS011;37259;49.972;19.850;2023-01-19T03:27:54;20.2;;;11.6;;
51194;SDS011;37259;49.972;19.850;2023-01-19T03:28:54;20.2;;;11.6;;
51194;SDS011;37259;49.972;19.850;2023-01-19T03:29:55;20.2;;;11.6;;
51194;SDS011;37259;49.972;19.850;2023-01-19T03:30:55;20.2;;;11.6;;
51194;SDS011;37259;49.972;19.850;2023-01-19T03:31:54;20.2;;;11.6;;
51194;SDS011;37259;49.972;19.850;2023-01-19T03:32:55;20.2;;;11.6;;
51194;SDS011;37259;49.972;19.850;2023-01-19T03:33:55;20.2;;;11.6;;
51194;SDS011;37259;49.972;19.850;2023-01-19T03:34:54;20.2;;;11.6;;
51194;SDS011;37259;49.972;19.850;2023-01-19T03:35:56;20.2;;;11.6;;
51194;SDS011;37259;49.972;19.850;2023-01-19T03:36:55;20.2;;;11.6;;
51194;SDS011;37259;49.972;19.850;2023-01-19T03:37:54;23.6;;;14.6;;
51194;SDS011;37259;49.972;19.850;2023-01-19T03:38:54;23.6;;;14.6;;
51194;SDS011;37259;49.972;19.850;2023-01-19T03:39:54;23.6;;;14.6;;
51194;SDS011;37259;49.972;19.850;2023-01-19T03:40:54;23.6;;;14.6;;
51194;SDS011;37259;49.972;19.850;2023-01-19T03:41:55;23.6;;;14.6;;
51194;SDS011;37259;49.972;19.850;2023-01-19T03:42:54;23.6;;;14.6;;
51194;SDS011;37259;49.972;19.850;2023-01-19T03:43:54;23.6;;;14.6;;
51194;SDS011;37259;49.972;19.850;2023-01-19T03:44:54;23.6;;;14.6;;
51194;SDS011;37259;49.972;19.850;2023-01-19T03:45:54;23.6;;;14.6;;
51194;SDS011;37259;49.972;19.850;2023-01-19T03:46:54;23.6;;;14.6;;
51194;SDS011;37259;49.972;19.850;2023-01-19T03:47:54;23.6;;;14.6;;
51194;SDS011;37259;49.972;19.850;2023-01-19T03:48:54;23.6;;;14.6;;
51194;SDS011;37259;49.972;19.850;2023-01-19T03:49:54;23.6;;;14.6;;
51194;SDS011;37259;49.972;19.850;2023-01-19T03:50:54;23.6;;;14.6;;
51194;SDS011;37259;49.972;19.850;2023-01-19T03:51:54;23.6;;;14.6;;
51194;SDS011;37259;49.972;19.850;2023-01-19T03:53:04;23.6;;;14.6;;
51194;SDS011;37259;49.972;19.850;2023-01-19T03:53:54;23.6;;;14.6;;
51194;SDS011;37259;49.972;19.850;2023-01-19T03:54:54;23.6;;;14.6;;
51194;SDS011;37259;49.972;19.850;2023-01-19T03:55:54;23.6;;;14.6;;
51194;SDS011;37259;49.972;19.850;2023-01-19T03:56:54;23.6;;;14.6;;
51194;SDS011;37259;49.972;19.850;2023-01-19T03:57:54;23.6;;;14.6;;
51194;SDS011;37259;49.972;19.850;2023-01-19T03:58:54;23.6;;;14.6;;
51194;SDS011;37259;49.972;19.850;2023-01-19T03:59:54;23.6;;;14.6;;
51194;SDS011;37259;49.972;19.850;2023-01-19T04:00:54;23.6;;;14.6;;
51194;SDS011;37259;49.972;19.850;2023-01-19T04:01:54;23.6;;;14.6;;
51194;SDS011;37259;49.972;19.850;2023-01-19T04:02:54;23.6;;;14.6;;
51194;SDS011;37259;49.972;19.850;2023-01-19T04:03:54;23.6;;;14.6;;
51194;SDS011;37259;49.972;19.850;2023-01-19T04:04:54;23.6;;;14.6;;
51194;SDS011;37259;49.972;19.850;2023-01-19T04:05:55;23.6;;;14.6;;
51194;SDS011;37259;49.972;19.850;2023-01-19T04:06:54;23.6;;;14.6;;
51194;SDS011;37259;49.972;19.850;2023-01-19T04:07:54;25;;;14.2;;
51194;SDS011;37259;49.972;19.850;2023-01-19T04:08:54;25;;;14.2;;
51194;SDS011;37259;49.972;19.850;2023-01-19T04:09:54;25;;;14.2;;
51194;SDS011;37259;49.972;19.850;2023-01-19T04:10:56;25;;;14.2;;
51194;SDS011;37259;49.972;19.850;2023-01-19T04:11:54;25;;;14.2;;
51194;SDS011;37259;49.972;19.850;2023-01-19T04:12:55;25;;;14.2;;
51194;SDS011;37259;49.972;19.850;2023-01-19T04:13:54;25;;;14.2;;
51194;SDS011;37259;49.972;19.850;2023-01-19T04:14:54;25;;;14.2;;
51194;SDS011;37259;49.972;19.850;2023-01-19T04:15:54;25;;;14.2;;
51194;SDS011;37259;49.972;19.850;2023-01-19T04:16:54;25;;;14.2;;
51194;SDS011;37259;49.972;19.850;2023-01-19T04:17:55;25;;;14.2;;
51194;SDS011;37259;49.972;19.850;2023-01-19T04:18:54;25;;;14.2;;
51194;SDS011;37259;49.972;19.850;2023-01-19T04:19:54;25;;;14.2;;
51194;SDS011;37259;49.972;19.850;2023-01-19T04:20:54;25;;;14.2;;
51194;SDS011;37259;49.972;19.850;2023-01-19T04:21:54;25;;;14.2;;
51194;SDS011;37259;49.972;19.850;2023-01-19T04:22:54;25;;;14.2;;
51194;SDS011;37259;49.972;19.850;2023-01-19T04:23:54;25;;;14.2;;
51194;SDS011;37259;49.972;19.850;2023-01-19T04:24:54;25;;;14.2;;
51194;SDS011;37259;49.972;19.850;2023-01-19T04:25:57;25;;;14.2;;
51194;SDS011;37259;49.972;19.850;2023-01-19T04:26:54;25;;;14.2;;
51194;SDS011;37259;49.972;19.850;2023-01-19T04:27:54;25;;;14.2;;
51194;SDS011;37259;49.972;19.850;2023-01-19T04:28:54;25;;;14.2;;
51194;SDS011;37259;49.972;19.850;2023-01-19T04:29:54;25;;;14.2;;
51194;SDS011;37259;49.972;19.850;2023-01-19T04:30:55;25;;;14.2;;
51194;SDS011;37259;49.972;19.850;2023-01-19T04:31:54;25;;;14.2;;
51194;SDS011;37259;49.972;19.850;2023-01-19T04:32:54;25;;;14.2;;
51194;SDS011;37259;49.972;19.850;2023-01-19T04:33:54;25;;;14.2;;
51194;SDS011;37259;49.972;19.850;2023-01-19T04:34:54;25;;;14.2;;
51194;SDS011;37259;49.972;19.850;2023-01-19T04:35:54;25;;;14.2;;
51194;SDS011;37259;49.972;19.850;2023-01-19T04:36:54;25;;;14.2;;
51194;SDS011;37259;49.972;19.850;2023-01-19T04:37:54;18.1;;;10.7;;
51194;SDS011;37259;49.972;19.850;2023-01-19T04:38:54;18.1;;;10.7;;
51194;SDS011;37259;49.972;19.850;2023-01-19T04:39:54;18.1;;;10.7;;
51194;SDS011;37259;49.972;19.850;2023-01-19T04:40:54;18.1;;;10.7;;
51194;SDS011;37259;49.972;19.850;2023-01-19T04:41:54;18.1;;;10.7;;
51194;SDS011;37259;49.972;19.850;2023-01-19T04:42:54;18.1;;;10.7;;
51194;SDS011;37259;49.972;19.850;2023-01-19T04:43:54;18.1;;;10.7;;
51194;SDS011;37259;49.972;19.850;2023-01-19T04:44:54;18.1;;;10.7;;
51194;SDS011;37259;49.972;19.850;2023-01-19T04:45:54;18.1;;;10.7;;
51194;SDS011;37259;49.972;19.850;2023-01-19T04:46:54;18.1;;;10.7;;
51194;SDS011;37259;49.972;19.850;2023-01-19T04:47:54;18.1;;;10.7;;
51194;SDS011;37259;49.972;19.850;2023-01-19T04:48:54;18.1;;;10.7;;
51194;SDS011;37259;49.972;19.850;2023-01-19T04:49:54;18.1;;;10.7;;
51194;SDS011;37259;49.972;19.850;2023-01-19T04:50:54;18.1;;;10.7;;
51194;SDS011;37259;49.972;19.850;2023-01-19T04:51:54;18.1;;;10.7;;
51194;SDS011;37259;49.972;19.850;2023-01-19T04:52:54;18.1;;;10.7;;
51194;SDS011;37259;49.972;19.850;2023-01-19T04:53:54;18.1;;;10.7;;
51194;SDS011;37259;49.972;19.850;2023-01-19T04:54:54;18.1;;;10.7;;
51194;SDS011;37259;49.972;19.850;2023-01-19T04:55:54;18.1;;;10.7;;
51194;SDS011;37259;49.972;19.850;2023-01-19T04:56:54;18.1;;;10.7;;
51194;SDS011;37259;49.972;19.850;2023-01-19T04:57:54;18.1;;;10.7;;
51194;SDS011;37259;49.972;19.850;2023-01-19T04:58:54;18.1;;;10.7;;
51194;SDS011;37259;49.972;19.850;2023-01-19T04:59:54;18.1;;;10.7;;
51194;SDS011;37259;49.972;19.850;2023-01-19T05:00:54;18.1;;;10.7;;
51194;SDS011;37259;49.972;19.850;2023-01-19T05:01:54;18.1;;;10.7;;
51194;SDS011;37259;49.972;19.850;2023-01-19T05:02:54;18.1;;;10.7;;
51194;SDS011;37259;49.972;19.850;2023-01-19T05:03:54;18.1;;;10.7;;
51194;SDS011;37259;49.972;19.850;2023-01-19T05:04:54;18.1;;;10.7;;
51194;SDS011;37259;49.972;19.850;2023-01-19T05:05:54;18.1;;;10.7;;
51194;SDS011;37259;49.972;19.850;2023-01-19T05:06:54;18.1;;;10.7;;
51194;SDS011;37259;49.972;19.850;2023-01-19T05:07:54;12.6;;;7.1;;
51194;SDS011;37259;49.972;19.850;2023-01-19T05:08:54;12.6;;;7.1;;
51194;SDS011;37259;49.972;19.850;2023-01-19T05:09:54;12.6;;;7.1;;
51194;SDS011;37259;49.972;19.850;2023-01-19T05:10:54;12.6;;;7.1;;
51194;SDS011;37259;49.972;19.850;2023-01-19T05:11:54;12.6;;;7.1;;
51194;SDS011;37259;49.972;19.850;2023-01-19T05:12:54;12.6;;;7.1;;
51194;SDS011;37259;49.972;19.850;2023-01-19T05:13:54;12.6;;;7.1;;
51194;SDS011;37259;49.972;19.850;2023-01-19T05:14:54;12.6;;;7.1;;
51194;SDS011;37259;49.972;19.850;2023-01-19T05:15:54;12.6;;;7.1;;
51194;SDS011;37259;49.972;19.850;2023-01-19T05:16:54;12.6;;;7.1;;
51194;SDS011;37259;49.972;19.850;2023-01-19T05:17:54;12.6;;;7.1;;
51194;SDS011;37259;49.972;19.850;2023-01-19T05:18:54;12.6;;;7.1;;
51194;SDS011;37259;49.972;19.850;2023-01-19T05:19:54;12.6;;;7.1;;
51194;SDS011;37259;49.972;19.850;2023-01-19T05:20:54;12.6;;;7.1;;
51194;SDS011;37259;49.972;19.850;2023-01-19T05:21:54;12.6;;;7.1;;
51194;SDS011;37259;49.972;19.850;2023-01-19T05:22:54;12.6;;;7.1;;
51194;SDS011;37259;49.972;19.850;2023-01-19T05:23:54;12.6;;;7.1;;
51194;SDS011;37259;49.972;19.850;2023-01-19T05:24:54;12.6;;;7.1;;
51194;SDS011;37259;49.972;19.850;2023-01-19T05:25:54;12.6;;;7.1;;
51194;SDS011;37259;49.972;19.850;2023-01-19T05:26:54;12.6;;;7.1;;
51194;SDS011;37259;49.972;19.850;2023-01-19T05:27:54;12.6;;;7.1;;
51194;SDS011;37259;49.972;19.850;2023-01-19T05:28:54;12.6;;;7.1;;
51194;SDS011;37259;49.972;19.850;2023-01-19T05:29:54;12.6;;;7.1;;
51194;SDS011;37259;49.972;19.850;2023-01-19T05:30:54;12.6;;;7.1;;
51194;SDS011;37259;49.972;19.850;2023-01-19T05:31:54;12.6;;;7.1;;
51194;SDS011;37259;49.972;19.850;2023-01-19T05:32:54;12.6;;;7.1;;
51194;SDS011;37259;49.972;19.850;2023-01-19T05:33:54;12.6;;;7.1;;
51194;SDS011;37259;49.972;19.850;2023-01-19T05:34:54;12.6;;;7.1;;
51194;SDS011;37259;49.972;19.850;2023-01-19T05:35:54;12.6;;;7.1;;
51194;SDS011;37259;49.972;19.850;2023-01-19T05:36:54;12.6;;;7.1;;
51194;SDS011;37259;49.972;19.850;2023-01-19T05:37:54;22.4;;;12.3;;
51194;SDS011;37259;49.972;19.850;2023-01-19T05:38:54;22.4;;;12.3;;
51194;SDS011;37259;49.972;19.850;2023-01-19T05:39:54;22.4;;;12.3;;
51194;SDS011;37259;49.972;19.850;2023-01-19T05:40:55;22.4;;;12.3;;
51194;SDS011;37259;49.972;19.850;2023-01-19T05:41:54;22.4;;;12.3;;
51194;SDS011;37259;49.972;19.850;2023-01-19T05:42:54;22.4;;;12.3;;
51194;SDS011;37259;49.972;19.850;2023-01-19T05:43:54;22.4;;;12.3;;
51194;SDS011;37259;49.972;19.850;2023-01-19T05:44:54;22.4;;;12.3;;
51194;SDS011;37259;49.972;19.850;2023-01-19T05:45:54;22.4;;;12.3;;
51194;SDS011;37259;49.972;19.850;2023-01-19T05:46:54;22.4;;;12.3;;
51194;SDS011;37259;49.972;19.850;2023-01-19T05:47:54;22.4;;;12.3;;
51194;SDS011;37259;49.972;19.850;2023-01-19T05:48:54;22.4;;;12.3;;
51194;SDS011;37259;49.972;19.850;2023-01-19T05:49:54;22.4;;;12.3;;
51194;SDS011;37259;49.972;19.850;2023-01-19T05:50:56;22.4;;;12.3;;
51194;SDS011;37259;49.972;19.850;2023-01-19T05:51:54;22.4;;;12.3;;
51194;SDS011;37259;49.972;19.850;2023-01-19T05:52:54;22.4;;;12.3;;
51194;SDS011;37259;49.972;19.850;2023-01-19T05:53:54;22.4;;;12.3;;
51194;SDS011;37259;49.972;19.850;2023-01-19T05:54:54;22.4;;;12.3;;
51194;SDS011;37259;49.972;19.850;2023-01-19T05:55:57;22.4;;;12.3;;
51194;SDS011;37259;49.972;19.850;2023-01-19T05:56:54;22.4;;;12.3;;
51194;SDS011;37259;49.972;19.850;2023-01-19T05:57:54;22.4;;;12.3;;
51194;SDS011;37259;49.972;19.850;2023-01-19T05:58:54;22.4;;;12.3;;
51194;SDS011;37259;49.972;19.850;2023-01-19T05:59:54;22.4;;;12.3;;
51194;SDS011;37259;49.972;19.850;2023-01-19T06:00:54;22.4;;;12.3;;